Time;durP1;ratioP1;P1;durP2;ratioP2;P2;SDS_P1;SDS_P2;PMS_P1;PMS_P2;Temp;Humidity;BMP_temperature;BMP_pressure;BME280_temperature;BME280_humidity;BME280_pressure;Samples;Min_cycle;Max_cycle;Signal;HPM_P1;HPM_P2
2022/05/22 00:01:24;;;;;;;2.60;0.98;;;;;;;25.13;48.44;100388.31;5023162;28;20120;-72
2022/05/22 00:03:50;;;;;;;1.23;0.77;;;;;;;25.13;48.31;100391.78;5024357;28;20038;-74
2022/05/22 00:06:16;;;;;;;2.45;1.05;;;;;;;25.14;48.49;100387.25;5022039;28;20061;-71
2022/05/22 00:08:41;;;;;;;3.72;0.90;;;;;;;25.13;48.48;100386.44;5025355;28;20060;-72
2022/05/22 00:11:07;;;;;;;2.05;0.88;;;;;;;25.14;48.34;100384.59;5023838;28;20414;-73
2022/05/22 00:13:32;;;;;;;1.58;0.90;;;;;;;25.14;48.41;100385.41;5025382;28;20414;-73
2022/05/22 00:18:42;;;;;;;1.70;1.02;;;;;;;25.13;48.51;100380.31;5024472;28;20211;-76
2022/05/22 00:21:07;;;;;;;3.20;0.90;;;;;;;25.14;48.31;100381.94;5028082;28;20176;-73
2022/05/22 00:23:33;;;;;;;2.17;1.05;;;;;;;25.14;48.32;100377.41;5027755;28;20038;-75
2022/05/22 00:25:58;;;;;;;1.88;1.10;;;;;;;25.16;48.43;100379.84;5029933;28;20080;-75
2022/05/22 00:28:24;;;;;;;0.88;0.60;;;;;;;25.14;48.36;100372.06;5021602;28;20037;-74
2022/05/22 00:30:50;;;;;;;1.63;1.35;;;;;;;25.16;48.40;100371.03;5025144;28;20033;-76
2022/05/22 00:33:15;;;;;;;2.40;1.02;;;;;;;25.15;48.22;100372.88;5029750;28;20128;-71
2022/05/22 00:35:41;;;;;;;1.20;0.82;;;;;;;25.14;48.27;100369.41;5027097;28;20167;-72
2022/05/22 00:38:06;;;;;;;2.50;1.00;;;;;;;25.15;48.41;100370.22;5024483;28;20496;-72
2022/05/22 00:40:33;;;;;;;1.90;1.13;;;;;;;25.13;48.36;100365.13;5027066;28;20500;-73
2022/05/22 00:42:58;;;;;;;1.55;0.80;;;;;;;25.13;48.23;100365.13;5021852;28;20109;-75
2022/05/22 00:45:24;;;;;;;1.33;0.93;;;;;;;25.14;48.25;100365.94;5025168;28;20120;-73
2022/05/22 00:47:53;;;;;;;2.22;1.20;;;;;;;25.13;48.20;100372.31;5021520;28;20444;-74
2022/05/22 00:50:20;;;;;;;2.38;0.98;;;;;;;25.14;48.22;100371.28;5027289;28;20069;-73
2022/05/22 00:52:53;;;;;;;2.30;1.10;;;;;;;25.14;48.44;100365.94;5022529;28;20068;-74
2022/05/22 00:55:23;;;;;;;3.17;1.38;;;;;;;25.14;48.28;100368.59;5023845;28;20192;-73
2022/05/22 00:57:52;;;;;;;2.60;0.93;;;;;;;25.14;48.45;100365.94;5027430;28;20055;-75
2022/05/22 01:00:21;;;;;;;2.28;1.02;;;;;;;25.13;48.13;100359.78;5023953;28;20049;-73
2022/05/22 01:05:33;;;;;;;1.35;1.17;;;;;;;25.13;48.42;100359.00;5028148;28;20056;-72
2022/05/22 01:07:59;;;;;;;2.35;1.13;;;;;;;25.13;48.21;100349.13;5022491;28;20354;-74
2022/05/22 01:10:36;;;;;;;1.70;0.95;;;;;;;25.14;48.26;100352.59;5026966;28;20042;-73
2022/05/22 01:13:03;;;;;;;2.92;1.25;;;;;;;25.16;48.24;100358.50;5026082;28;20025;-70
2022/05/22 01:15:28;;;;;;;3.85;1.05;;;;;;;25.17;48.26;100354.78;5028447;28;20061;-74
2022/05/22 01:17:53;;;;;;;2.20;1.15;;;;;;;25.18;48.18;100350.25;5029064;28;20495;-72
2022/05/22 01:20:19;;;;;;;2.25;1.05;;;;;;;25.18;48.08;100345.75;5026915;28;20108;-75
2022/05/22 01:22:44;;;;;;;1.55;0.70;;;;;;;25.19;48.19;100351.88;5025551;28;20033;-72
2022/05/22 01:25:11;;;;;;;1.40;1.05;;;;;;;25.19;48.16;100347.34;5028683;28;20116;-75
2022/05/22 01:27:37;;;;;;;1.88;1.00;;;;;;;25.19;48.15;100347.34;5027233;28;20132;-76
2022/05/22 01:30:24;;;;;;;1.48;0.95;;;;;;;25.17;48.18;100348.66;5022340;28;20037;-70
2022/05/22 01:32:50;;;;;;;1.10;0.70;;;;;;;25.17;47.87;100349.47;5025913;28;20128;-73
2022/05/22 01:35:22;;;;;;;2.30;0.80;;;;;;;25.17;48.06;100346.78;5025905;28;20084;-73
2022/05/22 01:37:48;;;;;;;1.50;0.90;;;;;;;25.18;48.13;100348.41;5024817;28;20037;-75
2022/05/22 01:40:15;;;;;;;1.52;1.10;;;;;;;25.18;48.20;100345.75;5026947;28;20040;-73
2022/05/22 01:42:42;;;;;;;1.48;0.98;;;;;;;25.18;47.90;100345.75;5028320;28;20683;-73
2022/05/22 01:45:09;;;;;;;1.73;1.15;;;;;;;25.18;48.27;100340.41;5029940;28;20033;-71
2022/05/22 01:47:37;;;;;;;1.80;1.02;;;;;;;25.16;48.17;100337.19;5028705;28;20045;-70
2022/05/22 01:50:04;;;;;;;1.65;1.05;;;;;;;25.18;48.04;100340.41;5026803;28;20095;-71
2022/05/22 01:52:30;;;;;;;1.65;1.15;;;;;;;25.16;48.19;100334.50;5025430;28;20105;-72
2022/05/22 01:54:55;;;;;;;3.03;0.90;;;;;;;25.17;48.07;100340.66;5033575;28;20511;-72
2022/05/22 01:57:21;;;;;;;2.20;0.90;;;;;;;25.16;48.33;100337.19;5030911;28;20060;-74
2022/05/22 01:59:46;;;;;;;1.27;0.90;;;;;;;25.16;48.08;100334.50;5032606;28;20502;-72
2022/05/22 02:02:11;;;;;;;2.22;1.05;;;;;;;25.15;47.97;100330.22;5030463;28;20025;-75
2022/05/22 02:04:37;;;;;;;1.40;1.00;;;;;;;25.16;48.00;100328.38;5032557;28;20519;-74
2022/05/22 02:09:47;;;;;;;1.33;0.77;;;;;;;25.13;48.04;100329.66;5021328;28;20374;-73
2022/05/22 02:12:13;;;;;;;1.42;0.80;;;;;;;25.12;47.96;100325.38;5023566;28;20037;-72
2022/05/22 02:14:38;;;;;;;3.55;1.05;;;;;;;25.12;48.03;100330.72;5024438;28;20441;-73
2022/05/22 02:17:04;;;;;;;1.20;0.70;;;;;;;25.14;48.09;100331.28;5024517;28;20025;-73
2022/05/22 02:19:29;;;;;;;1.52;0.90;;;;;;;25.13;47.87;100327.00;5026694;28;20283;-75
2022/05/22 02:21:55;;;;;;;1.10;0.90;;;;;;;25.13;48.04;100327.00;5024383;28;20870;-72
2022/05/22 02:24:20;;;;;;;2.17;1.30;;;;;;;25.13;48.08;100317.16;5023935;28;20021;-73
2022/05/22 02:26:46;;;;;;;1.35;0.90;;;;;;;25.13;47.94;100327.00;5027154;28;20030;-70
2022/05/22 02:29:11;;;;;;;1.45;0.70;;;;;;;25.14;47.79;100331.28;5027332;28;20524;-73
2022/05/22 02:31:37;;;;;;;1.17;0.80;;;;;;;25.14;47.87;100323.28;5021924;28;20036;-71
2022/05/22 02:34:03;;;;;;;1.15;0.70;;;;;;;25.16;48.07;100328.38;5022854;28;20043;-73
2022/05/22 02:36:28;;;;;;;1.83;0.93;;;;;;;25.16;47.93;100317.72;5025488;28;20096;-74
2022/05/22 02:38:54;;;;;;;1.23;1.00;;;;;;;25.18;47.91;100307.59;5023015;28;20116;-75
2022/05/22 02:41:20;;;;;;;1.45;1.00;;;;;;;25.17;47.82;100304.13;5021899;28;20025;-73
2022/05/22 02:43:46;;;;;;;1.20;0.90;;;;;;;25.18;47.95;100316.41;5026901;28;20159;-73
2022/05/22 02:46:15;;;;;;;1.00;0.80;;;;;;;25.19;47.84;100306.56;5023510;28;20096;-76
2022/05/22 02:48:41;;;;;;;1.50;1.10;;;;;;;25.19;47.84;100304.69;5025204;28;20036;-72
2022/05/22 02:51:14;;;;;;;1.00;0.85;;;;;;;25.18;47.77;100303.09;5024268;28;20090;-73
2022/05/22 02:53:40;;;;;;;1.73;0.90;;;;;;;25.19;47.73;100307.38;5262604;23;20064;-74
2022/05/22 02:56:08;;;;;;;1.30;0.80;;;;;;;25.19;47.77;100301.22;5027456;28;20037;-73
2022/05/22 02:58:34;;;;;;;1.00;0.90;;;;;;;25.18;47.62;100292.41;5026836;28;20511;-70
2022/05/22 03:00:59;;;;;;;1.80;0.95;;;;;;;25.18;47.70;100297.75;5026666;28;20033;-73
2022/05/22 03:03:24;;;;;;;3.05;1.23;;;;;;;25.18;47.99;100295.09;5028424;28;20059;-70
2022/05/22 03:08:34;;;;;;;2.53;0.90;;;;;;;25.17;48.03;100290.81;5027797;28;20056;-72
2022/05/22 03:11:06;;;;;;;1.33;1.10;;;;;;;25.16;47.89;100288.38;5028091;28;20026;-72
2022/05/22 03:13:32;;;;;;;1.08;0.90;;;;;;;25.16;48.02;100289.19;5029261;28;20037;-72
2022/05/22 03:15:58;;;;;;;1.25;0.95;;;;;;;25.16;47.88;100299.84;5030294;28;20076;-70
2022/05/22 03:18:24;;;;;;;1.10;1.00;;;;;;;25.16;47.85;100297.19;5030296;28;20045;-73
2022/05/22 03:20:49;;;;;;;1.10;0.90;;;;;;;25.14;47.63;100299.28;5033388;28;20028;-71
2022/05/22 03:23:15;;;;;;;1.70;0.90;;;;;;;25.16;48.08;100304.38;5029959;28;20051;-74
2022/05/22 03:25:44;;;;;;;4.55;1.10;;;;;;;25.15;47.94;100295.56;5031949;28;20037;-69
2022/05/22 03:28:09;;;;;;;1.58;1.10;;;;;;;25.14;47.89;100294.78;5034273;28;20547;-72
2022/05/22 03:30:35;;;;;;;1.02;0.65;;;;;;;25.16;48.03;100283.84;5034528;28;20033;-72
2022/05/22 03:33:00;;;;;;;1.52;0.70;;;;;;;25.15;47.98;100284.91;5028658;28;20428;-74
2022/05/22 03:35:26;;;;;;;1.48;0.75;;;;;;;25.14;47.96;100281.44;5027833;28;20034;-75
2022/05/22 03:37:51;;;;;;;2.60;1.33;;;;;;;25.15;47.88;100276.91;5026362;28;20026;-73
2022/05/22 03:40:17;;;;;;;2.90;1.08;;;;;;;25.16;47.90;100288.38;5027272;28;20060;-71
2022/05/22 03:42:43;;;;;;;1.30;1.00;;;;;;;25.15;47.89;100282.25;5027406;28;20042;-73
2022/05/22 03:45:09;;;;;;;1.42;0.77;;;;;;;25.15;47.92;100287.56;5026799;28;20075;-73
2022/05/22 03:47:34;;;;;;;1.88;0.85;;;;;;;25.15;48.19;100282.25;5026739;28;20057;-70
2022/05/22 03:50:05;;;;;;;3.78;1.25;;;;;;;25.14;48.12;100292.09;5027806;28;20092;-73
2022/05/22 03:52:40;;;;;;;6.57;1.30;;;;;;;25.13;48.12;100305.69;5024546;28;20083;-76
2022/05/22 03:55:07;;;;;;;;;;;;;;;25.05;48.11;100311.41;5027449;28;20048;-71
2022/05/22 03:57:32;;;;;;;2.47;0.80;;;;;;;25.08;48.05;100321.59;5031179;28;20328;-74
2022/05/22 03:59:58;;;;;;;1.20;0.80;;;;;;;25.09;48.25;100321.34;5031059;28;20026;-73
2022/05/22 04:02:23;;;;;;;2.85;0.88;;;;;;;25.11;48.18;100321.09;5028786;28;20029;-74
2022/05/22 04:04:49;;;;;;;1.00;0.80;;;;;;;25.11;48.10;100327.25;5031632;28;20026;-75
2022/05/22 04:07:15;;;;;;;3.10;1.20;;;;;;;25.11;48.18;100329.09;5029664;28;21652;-72
2022/05/22 04:09:41;;;;;;;2.65;1.27;;;;;;;25.12;48.10;100314.72;5030725;28;20516;-72
2022/05/22 04:12:08;;;;;;;2.03;0.98;;;;;;;25.13;47.94;100327.81;5030601;28;20156;-73
2022/05/22 04:14:34;;;;;;;1.50;1.20;;;;;;;25.14;47.70;100328.63;5030020;28;20029;-72
2022/05/22 04:16:59;;;;;;;1.70;0.80;;;;;;;25.14;48.19;100333.94;5030291;28;20393;-74
2022/05/22 04:19:24;;;;;;;1.40;1.10;;;;;;;25.15;48.22;100335.56;5030064;28;20064;-71
2022/05/22 04:21:50;;;;;;;2.15;1.30;;;;;;;25.16;47.99;100325.72;5030443;28;20116;-70
2022/05/22 04:27:04;;;;;;;1.20;0.70;;;;;;;25.16;47.96;100323.84;5028934;28;20131;-72
2022/05/22 04:29:31;;;;;;;1.17;1.00;;;;;;;25.16;47.98;100318.50;5030678;28;20022;-72
2022/05/22 04:31:56;;;;;;;1.42;1.00;;;;;;;25.17;47.91;100301.47;5027589;28;20036;-74
2022/05/22 04:34:22;;;;;;;1.92;1.15;;;;;;;25.18;48.03;100299.63;5030732;28;20491;-75
2022/05/22 04:36:47;;;;;;;1.10;0.90;;;;;;;25.18;47.98;100304.94;5029267;28;20120;-72
2022/05/22 04:39:13;;;;;;;4.35;0.80;;;;;;;25.18;47.97;100303.09;5029511;28;20393;-73
2022/05/22 04:41:38;;;;;;;2.55;0.90;;;;;;;25.19;47.85;100301.22;5029842;28;20120;-73
2022/05/22 04:44:04;;;;;;;3.10;0.60;;;;;;;25.19;48.04;100294.03;5030103;28;20037;-71
2022/05/22 04:46:29;;;;;;;1.30;0.80;;;;;;;25.19;48.15;100299.38;5027144;28;20057;-72
2022/05/22 04:48:54;;;;;;;1.13;0.73;;;;;;;25.19;47.90;100307.38;5030975;28;20059;-70
2022/05/22 04:51:20;;;;;;;1.00;0.77;;;;;;;25.19;48.01;100307.38;5029347;28;20147;-74
2022/05/22 04:53:45;;;;;;;2.75;0.90;;;;;;;25.19;47.87;100310.03;5028832;28;20046;-72
2022/05/22 04:56:11;;;;;;;2.78;0.70;;;;;;;25.20;47.89;100311.66;5030517;28;20083;-72
2022/05/22 04:58:36;;;;;;;1.77;0.80;;;;;;;25.19;47.99;100311.88;5030139;28;20064;-74
2022/05/22 05:01:07;;;;;;;1.58;0.95;;;;;;;25.19;48.29;100323.38;5027784;28;20022;-72
2022/05/22 05:03:33;;;;;;;1.70;0.90;;;;;;;25.19;47.87;100320.69;5030072;28;20119;-73
2022/05/22 05:05:58;;;;;;;0.80;0.70;;;;;;;25.20;47.82;100327.66;5027780;28;20499;-74
2022/05/22 05:08:25;;;;;;;1.52;0.82;;;;;;;25.20;47.86;100329.50;5027685;28;20059;-72
2022/05/22 05:10:52;;;;;;;1.50;0.95;;;;;;;25.19;48.00;100326.03;5030546;28;20377;-74
2022/05/22 05:13:18;;;;;;;2.00;0.90;;;;;;;25.19;48.00;100326.03;5029243;28;20114;-72
2022/05/22 05:15:44;;;;;;;1.10;0.70;;;;;;;25.19;47.96;100319.88;5029706;28;20082;-73
2022/05/22 05:18:10;;;;;;;1.63;0.70;;;;;;;25.19;47.86;100320.69;5029568;28;20041;-74
2022/05/22 05:20:37;;;;;;;1.85;1.05;;;;;;;25.18;47.88;100313.75;5029086;28;20017;-72
2022/05/22 05:23:06;;;;;;;2.00;0.80;;;;;;;25.18;47.97;100320.94;5027658;28;20030;-74
2022/05/22 05:25:31;;;;;;;1.80;0.60;;;;;;;25.18;47.98;100335.06;5027600;28;20028;-71
2022/05/22 05:27:57;;;;;;;1.48;0.80;;;;;;;25.17;48.07;100330.78;5029211;28;20022;-74
2022/05/22 05:30:22;;;;;;;2.45;0.93;;;;;;;25.18;48.05;100331.59;5029177;28;20045;-73
2022/05/22 05:32:54;;;;;;;1.55;1.00;;;;;;;25.17;47.89;100322.00;5026309;28;20028;-71
2022/05/22 05:35:20;;;;;;;1.58;0.70;;;;;;;25.17;48.04;100330.00;5033451;28;20037;-71
2022/05/22 05:37:46;;;;;;;1.27;0.98;;;;;;;25.18;48.61;100335.06;5024102;28;20021;-74
2022/05/22 05:40:12;;;;;;;1.48;0.95;;;;;;;25.20;48.50;100332.97;5028185;28;20021;-72
2022/05/22 05:42:38;;;;;;;1.70;1.33;;;;;;;25.21;48.59;100331.94;5028257;28;20424;-74
2022/05/22 05:45:07;;;;;;;4.40;1.58;;;;;;;25.28;49.77;100345.91;5024311;28;20065;-73
2022/05/22 05:47:32;;;;;;;4.05;2.60;;;;;;;25.36;50.72;100340.16;5031386;28;20132;-70
2022/05/22 05:49:58;;;;;;;3.72;2.08;;;;;;;25.38;51.24;100351.38;5028359;28;20120;-72
2022/05/22 05:52:24;;;;;;;2.30;1.65;;;;;;;25.39;51.28;100355.66;5027651;28;20037;-74
2022/05/22 05:54:49;;;;;;;1.85;1.25;;;;;;;25.39;51.36;100355.66;5028936;28;20060;-72
2022/05/22 05:57:15;;;;;;;3.75;1.17;;;;;;;25.38;51.85;100338.06;5028694;28;20556;-73
2022/05/22 05:59:42;;;;;;;3.72;1.50;;;;;;;25.38;51.90;100345.25;5029252;28;20034;-74
2022/05/22 06:02:12;;;;;;;4.22;1.98;;;;;;;25.35;52.13;100346.53;5028973;28;20188;-72
2022/05/22 06:04:39;;;;;;;10.93;1.85;;;;;;;25.36;52.35;100352.69;5029331;28;20037;-74
2022/05/22 06:07:04;;;;;;;2.72;1.45;;;;;;;25.35;52.46;100349.22;5028938;28;20021;-71
2022/05/22 06:09:30;;;;;;;4.70;2.00;;;;;;;25.35;52.50;100349.22;5022573;28;20037;-74
2022/05/22 06:11:55;;;;;;;6.63;1.75;;;;;;;25.35;52.60;100348.41;5026170;28;20033;-72
2022/05/22 06:14:21;;;;;;;3.67;2.08;;;;;;;25.34;52.95;100354.78;5021440;28;20033;-70
2022/05/22 06:16:47;;;;;;;4.88;1.77;;;;;;;25.31;52.99;100345.41;5023978;28;20029;-71
2022/05/22 06:19:12;;;;;;;6.43;2.08;;;;;;;25.31;53.26;100349.94;5027543;28;20032;-77
2022/05/22 06:21:38;;;;;;;3.47;1.90;;;;;;;25.29;53.19;100342.19;5022549;28;20030;-74
2022/05/22 06:24:04;;;;;;;6.70;2.13;;;;;;;25.30;53.10;100345.66;5027163;28;20090;-72
2022/05/22 06:26:29;;;;;;;7.18;1.95;;;;;;;25.28;53.11;100348.56;5024767;28;20388;-70
2022/05/22 06:28:55;;;;;;;4.47;1.92;;;;;;;25.28;52.61;100351.22;5023986;28;20025;-71
2022/05/22 06:31:20;;;;;;;5.45;1.58;;;;;;;25.29;52.73;100352.84;5015613;28;20377;-73
2022/05/22 06:33:46;;;;;;;4.38;1.73;;;;;;;25.28;52.95;100345.91;5027724;28;20477;-72
2022/05/22 06:36:14;;;;;;;1.92;1.50;;;;;;;25.28;52.91;100347.75;5024270;28;20021;-72
2022/05/22 06:41:25;;;;;;;5.68;1.70;;;;;;;25.26;53.07;100355.19;5026711;28;20048;-74
2022/05/22 06:43:51;;;;;;;3.60;1.50;;;;;;;25.25;52.92;100349.06;5025803;28;20103;-73
2022/05/22 06:46:31;;;;;;;2.22;1.38;;;;;;;25.27;52.89;100349.63;5020679;28;20029;-73
2022/05/22 06:48:57;;;;;;;2.35;1.27;;;;;;;25.26;52.98;100356.00;5015679;28;20385;-74
2022/05/22 06:51:23;;;;;;;2.20;1.40;;;;;;;25.26;52.90;100353.34;5022511;28;20029;-75
2022/05/22 06:53:48;;;;;;;3.00;1.10;;;;;;;25.28;52.68;100347.75;5011292;28;20052;-73
2022/05/22 06:56:13;;;;;;;4.13;1.60;;;;;;;25.28;52.80;100347.75;5013872;28;20468;-74
2022/05/22 06:58:39;;;;;;;4.00;1.58;;;;;;;25.29;52.57;100352.84;5027190;28;20021;-76
2022/05/22 07:01:04;;;;;;;2.03;1.75;;;;;;;25.28;52.79;100350.44;5028165;28;20100;-75
2022/05/22 07:03:30;;;;;;;3.22;1.42;;;;;;;25.29;52.84;100346.72;5028450;28;20410;-70
2022/05/22 07:05:56;;;;;;;4.88;1.42;;;;;;;25.28;52.68;100348.56;5027969;28;20564;-72
2022/05/22 07:08:21;;;;;;;3.40;2.28;;;;;;;25.29;52.53;100350.19;5027187;28;20038;-76
2022/05/22 07:13:31;;;;;;;2.97;1.17;;;;;;;25.28;52.68;100345.09;5028494;28;20547;-75
2022/05/22 07:16:02;;;;;;;3.92;1.20;;;;;;;25.27;53.03;100346.94;5028471;28;20022;-72
2022/05/22 07:18:28;;;;;;;3.15;1.77;;;;;;;25.29;52.90;100347.50;5026158;28;20049;-74
2022/05/22 07:20:53;;;;;;;2.95;1.45;;;;;;;25.29;52.88;100347.50;5028442;28;20025;-76
2022/05/22 07:23:18;;;;;;;1.85;1.38;;;;;;;25.28;52.86;100340.56;5027399;28;20026;-78
2022/05/22 07:25:44;;;;;;;2.13;1.88;;;;;;;25.30;52.77;100343.78;5028138;28;20034;-72
2022/05/22 07:28:09;;;;;;;2.13;1.50;;;;;;;25.30;52.71;100343.78;5026318;28;20033;-74
2022/05/22 07:30:35;;;;;;;2.88;2.10;;;;;;;25.31;52.87;100341.94;5031297;28;20025;-73
2022/05/22 07:33:00;;;;;;;3.05;1.52;;;;;;;25.31;52.74;100332.09;5031752;28;20021;-76
2022/05/22 07:35:26;;;;;;;3.00;1.27;;;;;;;25.31;52.68;100334.75;5032007;28;20064;-73
2022/05/22 07:37:52;;;;;;;3.40;1.70;;;;;;;25.32;52.43;100331.03;5031365;28;20032;-75
2022/05/22 07:40:18;;;;;;;2.35;1.42;;;;;;;25.32;52.65;100331.03;5032167;28;20191;-76
2022/05/22 07:42:43;;;;;;;1.77;1.30;;;;;;;25.32;52.52;100341.69;5032475;28;20173;-77
2022/05/22 07:45:11;;;;;;;3.40;1.25;;;;;;;25.32;52.46;100333.69;5031745;28;20144;-75
2022/05/22 07:47:36;;;;;;;1.40;1.00;;;;;;;25.32;52.34;100331.03;5030212;28;20501;-77
2022/05/22 07:50:17;;;;;;;2.90;0.98;;;;;;;25.31;51.99;100326.75;5032120;28;20029;-77
2022/05/22 07:52:47;;;;;;;1.25;0.73;;;;;;;25.30;51.92;100335.00;5030714;28;20040;-72
2022/05/22 07:55:18;;;;;;;1.75;1.00;;;;;;;25.31;51.66;100324.09;5031770;28;20064;-71
2022/05/22 07:57:48;;;;;;;2.38;0.90;;;;;;;25.30;51.37;100322.47;5031614;28;20386;-74
2022/05/22 08:00:17;;;;;;;3.05;0.80;;;;;;;25.30;51.26;100311.81;5031610;28;20036;-77
2022/05/22 08:02:43;;;;;;;2.45;1.05;;;;;;;25.29;51.15;100304.03;5031608;28;20029;-75
2022/05/22 08:05:10;;;;;;;4.32;1.00;;;;;;;25.30;50.91;100311.81;5027702;28;20036;-73
2022/05/22 08:07:36;;;;;;;3.38;0.60;;;;;;;25.30;50.94;100309.13;5030411;28;20033;-77
2022/05/22 08:10:03;;;;;;;5.90;0.63;;;;;;;25.31;50.81;100312.59;5030348;28;20033;-72
2022/05/22 08:12:29;;;;;;;1.45;0.60;;;;;;;25.31;50.82;100313.41;5031137;28;20128;-71
2022/05/22 08:14:55;;;;;;;1.58;0.70;;;;;;;25.30;50.75;100300.31;5029437;28;20388;-75
2022/05/22 08:17:21;;;;;;;2.05;0.63;;;;;;;25.30;50.47;100303.00;5031502;28;20034;-74
2022/05/22 08:19:48;;;;;;;3.13;0.93;;;;;;;25.30;50.43;100295.81;5030038;28;20423;-73
2022/05/22 08:22:16;;;;;;;3.17;0.70;;;;;;;25.29;50.30;100299.53;5030545;28;20199;-74
2022/05/22 08:24:41;;;;;;;2.92;0.60;;;;;;;25.29;50.48;100294.19;5030380;28;20057;-73
2022/05/22 08:27:07;;;;;;;2.17;0.80;;;;;;;25.29;50.20;100302.19;5030911;28;20110;-72
2022/05/22 08:29:32;;;;;;;0.77;0.60;;;;;;;25.29;50.21;100288.06;5031226;28;20029;-74
2022/05/22 08:31:58;;;;;;;2.85;0.82;;;;;;;25.29;49.92;100282.72;5029042;28;20033;-72
2022/05/22 08:34:23;;;;;;;1.98;0.90;;;;;;;25.28;50.04;100279.25;5031076;28;20030;-73
2022/05/22 08:36:51;;;;;;;3.13;1.08;;;;;;;25.27;49.90;100276.81;5031026;28;20430;-74
2022/05/22 08:39:20;;;;;;;1.27;0.50;;;;;;;25.28;49.92;100281.91;5029080;28;20025;-76
2022/05/22 08:41:48;;;;;;;1.77;0.60;;;;;;;25.29;49.85;100277.38;5030726;28;20432;-73
2022/05/22 08:44:30;;;;;;;1.05;0.60;;;;;;;25.25;49.80;100274.41;5030723;28;20033;-71
2022/05/22 08:47:03;;;;;;;3.00;0.70;;;;;;;25.27;49.62;100272.28;5030839;28;20033;-73
2022/05/22 08:49:42;;;;;;;3.85;0.50;;;;;;;25.25;49.63;100263.72;5028767;28;20107;-73
2022/05/22 08:52:13;;;;;;;4.25;0.73;;;;;;;25.26;49.38;100262.69;5030351;28;20040;-71
2022/05/22 08:54:45;;;;;;;1.02;0.50;;;;;;;25.27;49.18;100268.81;5029617;28;20073;-73
2022/05/22 09:00:09;;;;;;;3.72;0.77;;;;;;;25.29;49.31;100264.84;5030015;28;20048;-74
2022/05/22 09:02:48;;;;;;;1.80;0.70;;;;;;;25.29;49.02;100267.53;5030373;28;20026;-74
2022/05/22 09:05:21;;;;;;;1.50;0.55;;;;;;;25.30;48.98;100261.13;5030349;28;20120;-71
2022/05/22 09:07:55;;;;;;;3.60;0.60;;;;;;;25.30;49.15;100258.47;5030266;28;20022;-74
2022/05/22 09:10:23;;;;;;;2.75;0.80;;;;;;;25.31;49.04;100259.28;5029678;28;20060;-71
2022/05/22 09:12:55;;;;;;;3.38;0.75;;;;;;;25.33;48.75;100262.50;5030099;28;20025;-75
2022/05/22 09:15:28;;;;;;;1.67;0.50;;;;;;;25.33;48.72;100262.50;5029974;28;20075;-75
2022/05/22 09:18:21;;;;;;;1.42;0.60;;;;;;;25.32;48.44;100268.91;5030336;28;20380;-72
2022/05/22 09:21:11;;;;;;;1.00;0.50;;;;;;;25.31;48.70;100256.63;5028214;28;20208;-73
2022/05/22 09:23:36;;;;;;;1.27;0.40;;;;;;;25.30;48.90;100261.13;5030156;28;20043;-71
2022/05/22 09:26:51;;;;;;;2.85;0.73;;;;;;;25.29;48.49;100262.19;5029427;28;20033;-71
2022/05/22 09:29:41;;;;;;;0.93;0.35;;;;;;;25.29;48.38;100262.19;5016707;28;20041;-71
2022/05/22 09:32:38;;;;;;;1.15;0.40;;;;;;;25.28;48.45;100255.25;5029476;28;20037;-72
2022/05/22 09:35:25;;;;;;;2.05;0.70;;;;;;;25.30;48.38;100255.81;4987570;28;20050;-71
2022/05/22 09:37:56;;;;;;;1.88;0.60;;;;;;;25.29;48.32;100250.72;4987707;28;20046;-75
2022/05/22 09:40:34;;;;;;;1.63;0.70;;;;;;;25.29;48.10;100256.88;4986701;28;20050;-73
2022/05/22 09:42:59;;;;;;;2.08;0.50;;;;;;;25.30;48.19;100258.47;4987408;28;20049;-70
2022/05/22 09:45:40;;;;;;;4.03;0.73;;;;;;;25.31;47.95;100254.75;4987416;28;20034;-72
2022/05/22 09:48:23;;;;;;;2.05;0.60;;;;;;;25.31;47.66;100259.28;4987665;28;20042;-72
2022/05/22 09:50:48;;;;;;;1.42;0.40;;;;;;;25.31;48.09;100248.63;4986345;28;20038;-73
2022/05/22 09:53:34;;;;;;;3.40;0.65;;;;;;;25.31;47.79;100252.09;4986648;28;20081;-71
2022/05/22 09:56:22;;;;;;;1.70;0.50;;;;;;;25.30;47.74;100250.47;4986545;28;20419;-75
2022/05/22 09:58:59;;;;;;;2.17;0.50;;;;;;;25.33;47.69;100241.19;4987051;28;20101;-73
2022/05/22 10:01:32;;;;;;;1.02;0.47;;;;;;;25.33;47.65;100235.84;4986654;28;20084;-72
2022/05/22 10:04:00;;;;;;;1.27;0.50;;;;;;;25.35;47.84;100223.88;4986423;28;20045;-72
2022/05/22 10:06:47;;;;;;;5.25;0.90;;;;;;;25.34;47.65;100232.94;4987615;28;20149;-72
2022/05/22 10:09:41;;;;;;;3.80;0.77;;;;;;;25.33;47.73;100223.31;4987238;28;20525;-71
2022/05/22 10:12:06;;;;;;;2.88;0.40;;;;;;;25.34;47.55;100222.25;5010162;28;20053;-75
2022/05/22 10:15:24;;;;;;;1.77;0.57;;;;;;;25.33;47.53;100215.31;5028939;28;20029;-71
2022/05/22 10:18:21;;;;;;;2.00;0.50;;;;;;;25.34;47.64;100205.47;4967809;28;20105;-75
2022/05/22 10:21:20;;;;;;;1.00;0.50;;;;;;;25.34;47.59;100208.94;4965180;28;20049;-71
2022/05/22 10:24:16;;;;;;;2.72;0.50;;;;;;;25.33;47.64;100204.66;4928809;29;20056;-73
2022/05/22 10:27:08;;;;;;;4.03;0.77;;;;;;;25.34;47.84;100205.47;4928315;29;20039;-74
2022/05/22 10:29:52;;;;;;;3.08;0.50;;;;;;;25.35;47.51;100207.88;4928797;29;20538;-71
2022/05/22 10:32:28;;;;;;;2.10;0.52;;;;;;;25.37;47.74;100204.97;4927729;29;20950;-72
2022/05/22 10:35:09;;;;;;;2.33;0.50;;;;;;;25.37;47.38;100205.78;4927809;29;20476;-71
2022/05/22 10:37:48;;;;;;;0.95;0.50;;;;;;;25.38;47.64;100206.59;4928935;29;20062;-74
2022/05/22 10:40:17;;;;;;;3.17;0.52;;;;;;;25.40;47.51;100207.13;4927874;29;20071;-74
2022/05/22 10:42:46;;;;;;;2.38;0.60;;;;;;;25.41;47.55;100201.56;4928065;29;20106;-71
2022/05/22 10:45:35;;;;;;;0.95;0.47;;;;;;;25.41;47.16;100195.41;4928933;29;20058;-69
2022/05/22 10:48:17;;;;;;;3.50;0.60;;;;;;;25.41;47.51;100200.75;4948306;28;20593;-72
2022/05/22 10:50:57;;;;;;;2.25;0.70;;;;;;;25.41;47.26;100190.09;4985403;28;20030;-70
2022/05/22 10:53:45;;;;;;;1.20;0.60;;;;;;;25.41;47.16;100185.56;4986269;28;20054;-73
2022/05/22 10:56:14;;;;;;;1.15;0.60;;;;;;;25.42;47.59;100184.50;4976761;28;20066;-70
2022/05/22 10:58:51;;;;;;;1.00;0.60;;;;;;;25.43;47.38;100185.31;4986300;28;20526;-73
2022/05/22 11:01:19;;;;;;;2.67;0.63;;;;;;;25.43;47.29;100175.44;5016892;28;20429;-73
2022/05/22 11:03:44;;;;;;;2.40;0.60;;;;;;;25.44;47.51;100168.25;5025811;28;20124;-73
2022/05/22 11:06:22;;;;;;;4.63;0.57;;;;;;;25.45;47.35;100176.00;5028244;28;20033;-73
2022/05/22 11:08:54;;;;;;;2.60;0.75;;;;;;;25.47;47.35;100162.44;5028219;28;20029;-70
2022/05/22 11:11:30;;;;;;;1.25;0.50;;;;;;;25.47;47.33;100157.09;5026254;28;20523;-73
2022/05/22 11:14:19;;;;;;;2.58;0.50;;;;;;;25.46;47.41;100161.63;5027854;28;20421;-71
2022/05/22 11:16:44;;;;;;;2.53;0.70;;;;;;;25.48;47.55;100157.91;5028568;28;20021;-74
2022/05/22 11:19:24;;;;;;;2.40;0.70;;;;;;;25.50;47.25;100161.13;5027998;28;20026;-72
2022/05/22 11:22:02;;;;;;;2.65;0.82;;;;;;;25.50;47.46;100150.44;5026208;28;20017;-74
2022/05/22 11:24:34;;;;;;;4.53;0.60;;;;;;;25.49;47.38;100144.31;5025593;28;20119;-73
2022/05/22 11:27:23;;;;;;;1.35;0.55;;;;;;;25.48;47.43;100152.56;5008775;28;20037;-72
2022/05/22 11:30:07;;;;;;;1.85;0.60;;;;;;;25.48;47.33;100150.69;5008376;28;20482;-72
2022/05/22 11:32:41;;;;;;;2.20;0.93;;;;;;;25.50;47.22;100140.59;5008499;28;20038;-74
2022/05/22 11:35:24;;;;;;;4.38;1.00;;;;;;;25.49;47.23;100133.66;5011020;28;20488;-72
2022/05/22 11:38:35;;;;;;;1.25;0.73;;;;;;;25.48;47.19;100133.91;5025948;28;20026;-74
2022/05/22 11:41:22;;;;;;;1.33;0.73;;;;;;;25.47;47.21;100133.09;5027647;28;20029;-72
2022/05/22 11:44:16;;;;;;;1.98;0.70;;;;;;;25.46;47.41;100126.94;5028230;28;20041;-72
2022/05/22 11:46:57;;;;;;;2.00;0.88;;;;;;;25.46;47.07;100129.63;5027908;28;20033;-75
2022/05/22 11:49:42;;;;;;;2.15;1.13;;;;;;;25.48;47.16;100124.03;5026361;28;20067;-72
2022/05/22 11:55:51;;;;;;;1.27;0.73;;;;;;;25.45;47.40;100112.00;5028888;28;20136;-72
2022/05/22 11:58:28;;;;;;;2.20;0.82;;;;;;;25.46;47.12;100110.13;4991061;28;20066;-72
2022/05/22 12:01:22;;;;;;;1.15;0.60;;;;;;;25.47;47.21;100117.09;4990484;28;20046;-69
2022/05/22 12:04:06;;;;;;;3.20;0.70;;;;;;;25.49;47.23;100111.50;4974893;28;20319;-73